createdAt,value
2023-03-05T00:01:19.510Z,19.67
2023-03-05T00:03:46.678Z,19.48
2023-03-05T00:06:13.290Z,19.40
2023-03-05T00:08:40.237Z,19.30
2023-03-05T00:11:09.802Z,20.85
2023-03-05T00:13:36.893Z,17.02
2023-03-05T00:16:05.606Z,18.42
2023-03-05T00:18:32.142Z,19.10
2023-03-05T00:20:59.014Z,19.10
2023-03-05T00:23:25.851Z,22.23
2023-03-05T00:25:52.501Z,19.60
2023-03-05T00:28:19.537Z,17.92
2023-03-05T00:30:46.306Z,18.90
2023-03-05T00:33:13.539Z,19.98
2023-03-05T00:35:41.943Z,16.13
2023-03-05T00:38:08.916Z,26.20
2023-03-05T00:40:38.154Z,16.80
2023-03-05T00:43:05.492Z,19.23
2023-03-05T00:45:32.462Z,18.88
2023-03-05T00:47:59.003Z,17.60
2023-03-05T00:50:26.242Z,17.17
2023-03-05T00:52:53.131Z,17.40
2023-03-05T00:55:19.797Z,17.67
2023-03-05T00:57:46.455Z,19.70
2023-03-05T01:00:15.528Z,16.73
2023-03-05T01:02:42.316Z,19.15
2023-03-05T01:05:12.769Z,17.52
2023-03-05T01:07:40.218Z,19.10
2023-03-05T01:10:08.364Z,17.17
2023-03-05T01:12:35.347Z,20.30
2023-03-05T01:15:02.386Z,16.80
2023-03-05T01:17:28.996Z,17.60
2023-03-05T01:19:55.558Z,15.68
2023-03-05T01:22:22.420Z,16.30
2023-03-05T01:24:51.756Z,16.27
2023-03-05T01:27:18.245Z,17.98
2023-03-05T01:29:44.809Z,16.88
2023-03-05T01:32:11.484Z,20.80
2023-03-05T01:34:38.008Z,18.95
2023-03-05T01:37:04.817Z,19.98
2023-03-05T01:39:31.338Z,18.23
2023-03-05T01:41:57.987Z,18.52
2023-03-05T01:44:27.392Z,18.35
2023-03-05T01:46:54.112Z,18.10
2023-03-05T01:49:33.866Z,16.20
2023-03-05T01:52:03.396Z,14.90
2023-03-05T01:54:35.238Z,19.00
2023-03-05T01:57:07.716Z,21.02
2023-03-05T01:59:34.702Z,12.63
2023-03-05T02:02:01.649Z,15.85
2023-03-05T02:04:36.328Z,20.20
2023-03-05T02:07:03.285Z,18.00
2023-03-05T02:09:29.912Z,18.27
2023-03-05T02:11:57.318Z,16.63
2023-03-05T02:14:24.678Z,19.15
2023-03-05T02:16:51.607Z,15.23
2023-03-05T02:19:18.275Z,15.05
2023-03-05T02:21:47.270Z,16.13
2023-03-05T02:24:16.334Z,16.42
2023-03-05T02:26:45.049Z,14.07
2023-03-05T02:29:17.685Z,16.83
2023-03-05T02:31:44.332Z,17.27
2023-03-05T02:34:10.928Z,14.80
2023-03-05T02:36:37.450Z,21.13
2023-03-05T02:39:04.672Z,15.38
2023-03-05T02:41:31.144Z,15.20
2023-03-05T02:43:57.642Z,18.27
2023-03-05T02:46:24.192Z,18.10
2023-03-05T02:48:50.696Z,17.55
2023-03-05T02:51:17.543Z,19.25
2023-03-05T02:53:44.226Z,21.40
2023-03-05T02:56:10.985Z,21.92
2023-03-05T02:58:37.478Z,22.77
2023-03-05T03:01:04.375Z,21.85
2023-03-05T03:03:31.030Z,18.88
2023-03-05T03:05:57.582Z,19.83
2023-03-05T03:08:24.162Z,18.83
2023-03-05T03:10:50.729Z,21.15
2023-03-05T03:13:17.359Z,21.20
2023-03-05T03:15:43.966Z,18.08
2023-03-05T03:18:10.521Z,17.50
2023-03-05T03:20:39.240Z,20.92
2023-03-05T03:23:06.738Z,18.40
2023-03-05T03:25:33.572Z,18.10
2023-03-05T03:28:00.143Z,14.63
2023-03-05T03:30:26.675Z,19.70
2023-03-05T03:32:53.813Z,17.00
2023-03-05T03:35:20.438Z,16.17
2023-03-05T03:37:47.667Z,15.98
2023-03-05T03:40:14.268Z,16.73
2023-03-05T03:42:40.821Z,18.58
2023-03-05T03:45:08.082Z,14.10
2023-03-05T03:47:34.698Z,14.38
2023-03-05T03:50:01.383Z,12.82
2023-03-05T03:52:28.041Z,14.15
2023-03-05T03:55:01.345Z,12.35
2023-03-05T03:57:29.490Z,19.42
2023-03-05T03:59:56.040Z,16.83
2023-03-05T04:02:23.094Z,13.65
2023-03-05T04:04:49.756Z,14.57
2023-03-05T04:07:16.277Z,13.60
2023-03-05T04:09:42.882Z,14.95
2023-03-05T04:12:09.732Z,14.88
2023-03-05T04:14:37.037Z,18.60
2023-03-05T04:17:03.644Z,17.83
2023-03-05T04:19:34.126Z,18.02
2023-03-05T04:22:00.746Z,16.60
2023-03-05T04:24:27.291Z,14.48
2023-03-05T04:26:54.079Z,13.73
2023-03-05T04:29:20.600Z,15.15
2023-03-05T04:31:47.136Z,12.82
2023-03-05T04:34:13.671Z,13.43
2023-03-05T04:36:40.350Z,14.70
2023-03-05T04:39:06.870Z,13.20
2023-03-05T04:41:33.364Z,13.52
2023-03-05T04:43:59.880Z,14.77
2023-03-05T04:46:26.484Z,13.95
2023-03-05T04:48:53.856Z,13.35
2023-03-05T04:51:20.426Z,14.30
2023-03-05T04:53:46.949Z,13.75
2023-03-05T04:56:13.512Z,15.30
2023-03-05T04:58:40.083Z,17.20
2023-03-05T05:01:07.572Z,16.63
2023-03-05T05:03:34.523Z,16.08
2023-03-05T05:06:04.440Z,16.40
2023-03-05T05:08:31.261Z,16.73
2023-03-05T05:11:04.423Z,15.82
2023-03-05T05:13:31.979Z,14.98
2023-03-05T05:15:58.928Z,14.80
2023-03-05T05:18:26.070Z,18.58
2023-03-05T05:20:52.788Z,15.80
2023-03-05T05:23:19.438Z,14.93
2023-03-05T05:25:46.057Z,15.35
2023-03-05T05:28:12.902Z,21.02
2023-03-05T05:30:39.462Z,21.63
2023-03-05T05:33:06.019Z,20.00
2023-03-05T05:35:32.616Z,18.77
2023-03-05T05:37:59.205Z,21.90
2023-03-05T05:40:25.733Z,20.77
2023-03-05T05:42:52.320Z,20.50
2023-03-05T05:45:19.073Z,15.88
2023-03-05T05:47:45.655Z,20.73
2023-03-05T05:50:12.673Z,19.88
2023-03-05T05:52:39.208Z,22.60
2023-03-05T05:55:06.491Z,19.88
2023-03-05T05:57:34.507Z,20.83
2023-03-05T06:00:01.500Z,16.23
2023-03-05T06:02:28.166Z,17.35
2023-03-05T06:04:56.652Z,18.20
2023-03-05T06:07:24.367Z,16.00
2023-03-05T06:09:50.969Z,16.48
2023-03-05T06:12:19.902Z,12.85
2023-03-05T06:14:46.425Z,27.88
2023-03-05T06:17:16.941Z,17.85
2023-03-05T06:19:48.510Z,20.92
2023-03-05T06:22:17.647Z,19.88
2023-03-05T06:24:44.203Z,17.85
2023-03-05T06:27:10.730Z,15.18
2023-03-05T06:29:37.217Z,14.27
2023-03-05T06:32:04.599Z,16.67
2023-03-05T06:34:31.124Z,12.38
2023-03-05T06:36:57.701Z,14.27
2023-03-05T06:39:24.222Z,11.80
2023-03-05T06:41:52.220Z,11.85
2023-03-05T06:44:18.729Z,18.70
2023-03-05T06:46:45.317Z,10.55
2023-03-05T06:49:11.995Z,14.80
2023-03-05T06:51:39.931Z,15.52
2023-03-05T06:54:09.630Z,11.85
2023-03-05T06:56:38.644Z,12.20
2023-03-05T06:59:06.224Z,13.98
2023-03-05T07:01:33.239Z,13.20
2023-03-05T07:04:00.764Z,16.33
2023-03-05T07:06:30.477Z,16.15
2023-03-05T07:08:58.516Z,11.40
2023-03-05T07:11:25.752Z,10.63
2023-03-05T07:13:52.426Z,14.63
2023-03-05T07:16:25.146Z,14.18
2023-03-05T07:18:52.396Z,12.23
2023-03-05T07:21:22.285Z,13.57
2023-03-05T07:23:49.371Z,19.88
2023-03-05T07:26:16.699Z,13.45
2023-03-05T07:28:43.350Z,19.10
2023-03-05T07:31:15.685Z,14.43
2023-03-05T07:33:42.337Z,12.98
2023-03-05T07:36:10.461Z,15.23
2023-03-05T07:38:37.012Z,27.50
2023-03-05T07:41:04.815Z,16.20
2023-03-05T07:43:31.419Z,10.82
2023-03-05T07:46:04.894Z,12.65
2023-03-05T07:48:31.524Z,12.90
2023-03-05T07:51:02.480Z,11.02
2023-03-05T07:53:29.077Z,10.00
2023-03-05T07:55:55.658Z,14.05
2023-03-05T07:58:22.297Z,9.68
2023-03-05T08:00:49.343Z,12.13
2023-03-05T08:03:15.961Z,14.27
2023-03-05T08:05:43.005Z,14.88
2023-03-05T08:08:09.879Z,11.82
2023-03-05T08:10:37.055Z,19.73
2023-03-05T08:13:04.149Z,14.45
2023-03-05T08:15:31.790Z,15.02
2023-03-05T08:17:59.428Z,25.83
2023-03-05T08:20:26.083Z,13.70
2023-03-05T08:22:52.668Z,14.20
2023-03-05T08:25:19.402Z,12.35
2023-03-05T08:27:47.170Z,16.08
2023-03-05T08:30:21.757Z,14.07
2023-03-05T08:32:51.848Z,15.40
2023-03-05T08:35:18.460Z,13.95
2023-03-05T08:37:45.001Z,16.55
2023-03-05T08:40:12.099Z,12.52
2023-03-05T08:42:38.665Z,17.65
2023-03-05T08:45:05.676Z,19.30
2023-03-05T08:47:32.159Z,19.85
2023-03-05T08:49:58.756Z,18.45
2023-03-05T08:52:27.349Z,12.18
2023-03-05T08:54:54.148Z,28.90
2023-03-05T08:57:20.836Z,14.52
2023-03-05T08:59:47.536Z,11.50
2023-03-05T09:02:14.294Z,12.00
2023-03-05T09:04:41.255Z,13.30
2023-03-05T09:07:08.017Z,11.50
2023-03-05T09:09:34.895Z,10.55
2023-03-05T09:12:02.280Z,15.50
2023-03-05T09:14:32.333Z,12.27
2023-03-05T09:16:58.878Z,12.30
2023-03-05T09:19:25.743Z,13.50
2023-03-05T09:21:52.277Z,12.90
2023-03-05T09:24:18.792Z,12.40
2023-03-05T09:26:45.402Z,12.20
2023-03-05T09:29:14.298Z,9.20
2023-03-05T09:31:40.919Z,10.30
2023-03-05T09:34:08.327Z,12.98
2023-03-05T09:36:35.530Z,10.25
2023-03-05T09:39:02.307Z,10.98
2023-03-05T09:41:38.751Z,13.20
2023-03-05T09:44:18.057Z,12.25
2023-03-05T09:47:13.302Z,10.43
2023-03-05T09:50:00.119Z,11.75
2023-03-05T09:52:50.504Z,12.77
2023-03-05T09:55:35.091Z,13.13
2023-03-05T09:58:11.561Z,11.35
2023-03-05T10:00:48.159Z,9.95
2023-03-05T10:03:43.826Z,9.65
2023-03-05T10:08:53.846Z,10.18
2023-03-05T10:11:54.594Z,10.60
2023-03-05T10:14:26.623Z,12.27
2023-03-05T10:17:17.166Z,10.27
2023-03-05T10:20:17.711Z,10.77
2023-03-05T10:23:10.681Z,12.63
2023-03-05T10:26:00.091Z,13.70
2023-03-05T10:28:54.713Z,11.50
2023-03-05T10:32:06.584Z,9.38
2023-03-05T10:35:06.826Z,6.93
2023-03-05T10:37:55.943Z,8.20
2023-03-05T10:40:34.783Z,11.50
2023-03-05T10:43:19.991Z,11.15
2023-03-05T10:45:49.783Z,10.35
2023-03-05T10:48:22.429Z,11.60
2023-03-05T10:50:53.624Z,8.73
2023-03-05T10:53:31.087Z,9.63
2023-03-05T10:56:03.857Z,11.85
2023-03-05T10:58:30.695Z,11.02
2023-03-05T11:01:04.905Z,8.88
2023-03-05T11:03:50.940Z,8.30
2023-03-05T11:06:30.585Z,11.77
2023-03-05T11:09:29.242Z,10.55
2023-03-05T11:12:11.653Z,10.52
2023-03-05T11:15:27.804Z,7.65
2023-03-05T11:18:18.689Z,16.92
2023-03-05T11:20:45.985Z,10.27
2023-03-05T11:23:19.923Z,9.15
2023-03-05T11:25:54.214Z,8.48
2023-03-05T11:28:32.846Z,8.07
2023-03-05T11:31:23.605Z,8.07
2023-03-05T11:34:05.236Z,6.78
2023-03-05T11:36:31.739Z,10.90
2023-03-05T11:39:07.783Z,8.07
2023-03-05T11:41:40.367Z,6.70
2023-03-05T11:44:13.777Z,10.65
2023-03-05T11:46:44.837Z,10.05
2023-03-05T11:49:16.820Z,6.10
2023-03-05T11:51:46.120Z,17.02
2023-03-05T11:54:20.430Z,17.63
2023-03-05T11:56:47.284Z,8.10
2023-03-05T11:59:19.143Z,8.02
2023-03-05T12:01:50.300Z,8.25
2023-03-05T12:04:18.246Z,7.40
2023-03-05T12:06:57.948Z,10.48
2023-03-05T12:09:29.098Z,7.60
2023-03-05T12:12:14.176Z,5.30
2023-03-05T12:15:12.456Z,5.95
2023-03-05T12:18:07.415Z,6.05
2023-03-05T12:20:38.895Z,8.30
2023-03-05T12:23:05.567Z,5.63
2023-03-05T12:25:35.516Z,7.68
2023-03-05T12:28:03.083Z,5.65
2023-03-05T12:30:35.565Z,5.88
2023-03-05T12:33:04.598Z,4.60
2023-03-05T12:35:39.606Z,9.43
2023-03-05T12:38:26.875Z,5.43
2023-03-05T12:40:53.842Z,7.45
2023-03-05T12:43:31.854Z,7.00
2023-03-05T12:46:25.073Z,5.50
2023-03-05T12:48:52.556Z,4.90
2023-03-05T12:51:40.925Z,7.03
2023-03-05T12:54:41.980Z,6.00
2023-03-05T12:57:21.859Z,7.40
2023-03-05T12:59:53.591Z,5.93
2023-03-05T13:02:36.043Z,9.35
2023-03-05T13:05:20.920Z,4.20
2023-03-05T13:07:48.713Z,6.15
2023-03-05T13:10:26.897Z,5.10
2023-03-05T13:12:56.746Z,5.00
2023-03-05T13:15:25.654Z,9.95
2023-03-05T13:17:56.754Z,18.20
2023-03-05T13:20:31.318Z,11.50
2023-03-05T13:23:18.759Z,15.27
2023-03-05T13:25:55.760Z,5.53
2023-03-05T13:28:22.284Z,4.15
2023-03-05T13:31:04.008Z,4.65
2023-03-05T13:33:33.927Z,3.67
2023-03-05T13:36:02.592Z,5.90
2023-03-05T13:38:43.629Z,5.45
2023-03-05T13:41:16.271Z,6.10
2023-03-05T13:43:46.029Z,5.75
2023-03-05T13:46:14.134Z,5.55
2023-03-05T13:48:40.785Z,4.82
2023-03-05T13:51:09.623Z,3.15
2023-03-05T13:53:36.952Z,5.95
2023-03-05T13:56:07.602Z,5.60
2023-03-05T13:58:49.561Z,5.68
2023-03-05T14:01:17.132Z,5.53
2023-03-05T14:03:46.358Z,4.95
2023-03-05T14:06:19.451Z,4.97
2023-03-05T14:08:51.247Z,6.63
2023-03-05T14:11:19.533Z,6.65
2023-03-05T14:13:48.901Z,3.40
2023-03-05T14:16:42.245Z,5.60
2023-03-05T14:19:32.879Z,7.20
2023-03-05T14:21:59.593Z,4.15
2023-03-05T14:24:31.293Z,7.22
2023-03-05T14:27:07.895Z,3.40
2023-03-05T14:29:34.947Z,3.40
2023-03-05T14:32:30.837Z,4.82
2023-03-05T14:34:59.751Z,7.07
2023-03-05T14:37:35.567Z,4.05
2023-03-05T14:40:08.276Z,5.32
2023-03-05T14:42:51.343Z,3.80
2023-03-05T14:45:23.530Z,3.95
2023-03-05T14:47:51.939Z,4.82
2023-03-05T14:50:33.876Z,5.80
2023-03-05T14:53:04.266Z,9.20
2023-03-05T14:55:32.375Z,5.18
2023-03-05T14:58:22.897Z,5.97
2023-03-05T15:00:51.244Z,5.07
2023-03-05T15:03:19.254Z,3.63
2023-03-05T15:05:48.942Z,4.07
2023-03-05T15:08:22.577Z,4.68
2023-03-05T15:10:49.888Z,4.78
2023-03-05T15:13:17.015Z,2.58
2023-03-05T15:15:45.135Z,4.30
2023-03-05T15:18:19.447Z,4.68
2023-03-05T15:20:48.768Z,3.75
2023-03-05T15:23:17.174Z,4.90
2023-03-05T15:25:43.704Z,2.17
2023-03-05T15:28:10.308Z,4.95
2023-03-05T15:30:43.663Z,5.13
2023-03-05T15:33:13.574Z,5.40
2023-03-05T15:35:40.794Z,6.20
2023-03-05T15:38:08.012Z,6.45
2023-03-05T15:40:34.658Z,6.57
2023-03-05T15:43:01.677Z,6.80
2023-03-05T15:45:31.331Z,4.22
2023-03-05T15:47:58.451Z,4.80
2023-03-05T15:50:25.056Z,5.45
2023-03-05T15:52:52.013Z,3.17
2023-03-05T15:55:19.124Z,4.47
2023-03-05T15:57:48.867Z,4.05
2023-03-05T16:00:18.226Z,5.15
2023-03-05T16:02:44.838Z,4.75
2023-03-05T16:05:11.548Z,11.10
2023-03-05T16:07:42.301Z,4.47
2023-03-05T16:10:13.723Z,5.82
2023-03-05T16:12:43.029Z,3.53
2023-03-05T16:15:16.474Z,3.47
2023-03-05T16:17:45.572Z,4.10
2023-03-05T16:20:13.244Z,3.50
2023-03-05T16:22:40.145Z,4.93
2023-03-05T16:25:07.437Z,4.60
2023-03-05T16:27:34.427Z,4.00
2023-03-05T16:30:00.987Z,4.53
2023-03-05T16:32:27.684Z,3.85
2023-03-05T16:34:54.308Z,6.88
2023-03-05T16:37:23.606Z,6.28
2023-03-05T16:39:50.237Z,6.00
2023-03-05T16:42:17.951Z,6.22
2023-03-05T16:44:45.324Z,8.88
2023-03-05T16:47:12.325Z,12.18
2023-03-05T16:49:39.889Z,20.13
2023-03-05T16:52:18.239Z,18.00
2023-03-05T16:54:46.933Z,11.40
2023-03-05T16:57:13.855Z,16.35
2023-03-05T16:59:40.550Z,9.02
2023-03-05T17:02:10.084Z,12.38
2023-03-05T17:04:37.240Z,13.63
2023-03-05T17:07:05.530Z,15.82
2023-03-05T17:09:32.133Z,12.13
2023-03-05T17:11:58.883Z,8.73
2023-03-05T17:14:25.561Z,10.18
2023-03-05T17:16:52.087Z,10.52
2023-03-05T17:19:18.886Z,9.55
2023-03-05T17:21:45.708Z,8.77
2023-03-05T17:24:12.168Z,10.25
2023-03-05T17:26:38.882Z,10.35
2023-03-05T17:29:05.799Z,12.30
2023-03-05T17:31:32.947Z,12.73
2023-03-05T17:33:59.718Z,15.95
2023-03-05T17:36:26.408Z,17.23
2023-03-05T17:38:54.877Z,17.70
2023-03-05T17:41:22.181Z,11.80
2023-03-05T17:43:49.352Z,9.40
2023-03-05T17:46:16.884Z,9.63
2023-03-05T17:48:43.597Z,13.73
2023-03-05T17:51:12.692Z,10.90
2023-03-05T17:53:40.405Z,8.70
2023-03-05T17:56:09.633Z,11.10
2023-03-05T17:58:37.022Z,11.80
2023-03-05T18:01:04.238Z,14.05
2023-03-05T18:03:30.868Z,14.75
2023-03-05T18:05:57.478Z,16.40
2023-03-05T18:08:24.110Z,15.82
2023-03-05T18:10:50.781Z,15.93
2023-03-05T18:13:17.500Z,11.20
2023-03-05T18:15:47.801Z,26.42
2023-03-05T18:18:16.011Z,16.60
2023-03-05T18:20:42.660Z,12.05
2023-03-05T18:23:09.953Z,18.40
2023-03-05T18:25:36.604Z,12.82
2023-03-05T18:28:09.004Z,23.05
2023-03-05T18:30:36.756Z,11.60
2023-03-05T18:33:04.197Z,11.05
2023-03-05T18:35:32.314Z,10.60
2023-03-05T18:37:59.539Z,9.35
2023-03-05T18:40:29.720Z,7.85
2023-03-05T18:42:58.852Z,10.15
2023-03-05T18:45:25.494Z,6.60
2023-03-05T18:47:54.187Z,7.28
2023-03-05T18:50:23.479Z,7.75
2023-03-05T18:52:50.321Z,6.32
2023-03-05T18:55:23.574Z,6.60
2023-03-05T18:57:50.820Z,9.05
2023-03-05T19:00:20.010Z,6.70
2023-03-05T19:02:47.316Z,7.90
2023-03-05T19:05:15.274Z,11.07
2023-03-05T19:07:41.952Z,15.38
2023-03-05T19:10:10.654Z,19.80
2023-03-05T19:13:19.359Z,21.02
2023-03-05T19:15:46.002Z,18.60
2023-03-05T19:18:13.215Z,9.05
2023-03-05T19:20:39.896Z,7.65
2023-03-05T19:23:06.477Z,6.78
2023-03-05T19:25:34.037Z,7.95
2023-03-05T19:28:01.536Z,8.00
2023-03-05T19:30:28.054Z,10.35
2023-03-05T19:32:54.586Z,7.90
2023-03-05T19:35:21.251Z,9.73
2023-03-05T19:37:47.864Z,12.18
2023-03-05T19:40:14.920Z,12.82
2023-03-05T19:42:41.550Z,11.02
2023-03-05T19:45:08.855Z,12.13
2023-03-05T19:47:35.656Z,9.23
2023-03-05T19:50:02.723Z,12.05
2023-03-05T19:52:29.287Z,6.82
2023-03-05T19:54:55.886Z,10.48
2023-03-05T19:57:22.486Z,8.43
2023-03-05T19:59:54.262Z,11.88
2023-03-05T20:02:21.882Z,9.52
2023-03-05T20:04:49.541Z,9.65
2023-03-05T20:07:16.827Z,11.48
2023-03-05T20:09:43.429Z,11.48
2023-03-05T20:12:10.440Z,8.05
2023-03-05T20:14:37.173Z,7.55
2023-03-05T20:17:03.882Z,11.23
2023-03-05T20:19:30.529Z,8.32
2023-03-05T20:21:57.092Z,13.98
2023-03-05T20:24:23.612Z,12.40
2023-03-05T20:26:50.167Z,12.50
2023-03-05T20:29:18.155Z,11.55
2023-03-05T20:31:45.197Z,11.52
2023-03-05T20:34:14.796Z,10.50
2023-03-05T20:36:41.475Z,10.43
2023-03-05T20:39:10.079Z,10.98
2023-03-05T20:41:38.610Z,10.50
2023-03-05T20:44:05.979Z,11.18
2023-03-05T20:46:35.526Z,10.15
2023-03-05T20:49:04.001Z,10.30
2023-03-05T20:51:36.398Z,12.60
2023-03-05T20:54:10.085Z,10.20
2023-03-05T20:56:37.542Z,10.07
2023-03-05T20:59:07.509Z,11.73
2023-03-05T21:01:35.876Z,9.20
2023-03-05T21:04:03.189Z,8.73
2023-03-05T21:06:31.765Z,9.85
2023-03-05T21:08:59.332Z,9.25
2023-03-05T21:11:26.383Z,11.27
2023-03-05T21:13:53.313Z,7.95
2023-03-05T21:16:23.364Z,10.50
2023-03-05T21:18:51.384Z,10.07
2023-03-05T21:21:18.697Z,10.40
2023-03-05T21:23:45.725Z,8.90
2023-03-05T21:26:13.496Z,6.47
2023-03-05T21:28:40.717Z,12.02
2023-03-05T21:31:10.700Z,10.10
2023-03-05T21:33:37.598Z,8.88
2023-03-05T21:36:04.597Z,9.07
2023-03-05T21:38:34.065Z,9.38
2023-03-05T21:41:02.465Z,6.53
2023-03-05T21:43:31.353Z,9.45
2023-03-05T21:46:01.051Z,9.32
2023-03-05T21:48:27.797Z,7.55
2023-03-05T21:50:55.494Z,12.15
2023-03-05T21:53:22.196Z,14.13
2023-03-05T21:56:31.014Z,15.35
2023-03-05T21:58:59.982Z,11.88
2023-03-05T22:01:26.593Z,11.30
2023-03-05T22:03:53.959Z,12.73
2023-03-05T22:06:21.976Z,11.05
2023-03-05T22:08:48.683Z,9.07
2023-03-05T22:11:17.297Z,8.27
2023-03-05T22:13:44.294Z,9.57
2023-03-05T22:16:11.363Z,9.20
2023-03-05T22:18:40.446Z,7.93
2023-03-05T22:21:17.094Z,7.95
2023-03-05T22:23:43.650Z,7.18
2023-03-05T22:26:10.207Z,12.18
2023-03-05T22:28:38.907Z,8.32
2023-03-05T22:31:06.069Z,6.57
2023-03-05T22:33:32.792Z,7.75
2023-03-05T22:35:59.507Z,6.18
2023-03-05T22:38:28.357Z,9.50
2023-03-05T22:40:54.902Z,7.95
2023-03-05T22:43:21.795Z,6.90
2023-03-05T22:45:49.145Z,8.38
2023-03-05T22:48:16.193Z,5.97
2023-03-05T22:50:44.278Z,6.85
2023-03-05T22:53:12.113Z,9.40
2023-03-05T22:55:40.990Z,9.95
2023-03-05T22:58:07.699Z,12.27
2023-03-05T23:00:34.364Z,7.82
2023-03-05T23:03:01.148Z,10.80
2023-03-05T23:05:35.357Z,7.05
2023-03-05T23:08:01.874Z,7.82
2023-03-05T23:10:29.348Z,11.43
2023-03-05T23:12:57.787Z,9.68
2023-03-05T23:15:33.428Z,8.40
2023-03-05T23:18:00.335Z,6.95
2023-03-05T23:20:33.197Z,8.50
2023-03-05T23:23:00.176Z,4.15
2023-03-05T23:25:29.470Z,3.90
2023-03-05T23:27:58.129Z,4.82
2023-03-05T23:30:33.747Z,6.55
2023-03-05T23:33:09.469Z,5.80
2023-03-05T23:35:38.611Z,7.53
2023-03-05T23:38:11.768Z,11.15
2023-03-05T23:40:51.802Z,8.55
2023-03-05T23:43:19.034Z,7.90
2023-03-05T23:45:48.201Z,7.97
2023-03-05T23:48:16.491Z,8.30
2023-03-05T23:50:47.579Z,8.02
2023-03-05T23:53:29.287Z,6.43
2023-03-05T23:55:57.400Z,5.85
2023-03-05T23:58:24.290Z,6.32
